Time;durP1;ratioP1;P1;durP2;ratioP2;P2;SDS_P1;SDS_P2;PMS_P1;PMS_P2;Temp;Humidity;BMP_temperature;BMP_pressure;BME280_temperature;BME280_humidity;BME280_pressure;Samples;Min_cycle;Max_cycle;Signal;HPM_P1;HPM_P2
2023/05/14 00:02:09;;;;;;;3.60;3.40;;;;;;;12.31;100.00;95337.50;4346274;32;20185;-56
2023/05/14 00:04:35;;;;;;;3.90;3.70;;;;;;;12.44;100.00;95337.75;4345042;32;20257;-55
2023/05/14 00:07:00;;;;;;;3.77;3.57;;;;;;;12.42;100.00;95339.91;4343871;32;20236;-57
2023/05/14 00:09:25;;;;;;;4.40;4.00;;;;;;;12.44;100.00;95340.41;4352663;32;20199;-55
2023/05/14 00:11:51;;;;;;;4.23;4.03;;;;;;;12.33;100.00;95334.53;4342140;32;20254;-56
2023/05/14 00:14:16;;;;;;;5.50;4.77;;;;;;;12.35;100.00;95335.78;4345753;32;20185;-59
2023/05/14 00:16:42;;;;;;;4.07;3.87;;;;;;;12.35;100.00;95333.12;4343913;32;20249;-56
2023/05/14 00:19:07;;;;;;;3.73;3.53;;;;;;;12.33;100.00;95332.66;4344451;32;20188;-55
2023/05/14 00:21:32;;;;;;;4.63;4.33;;;;;;;12.17;100.00;95334.13;4355603;32;20189;-54
2023/05/14 00:23:58;;;;;;;3.20;3.10;;;;;;;12.14;100.00;95332.06;4361585;32;20197;-56
2023/05/14 00:26:23;;;;;;;8.23;4.10;;;;;;;12.26;100.00;95329.63;4348351;32;20223;-56
2023/05/14 00:28:50;;;;;;;3.90;3.63;;;;;;;12.23;100.00;95332.91;4358085;32;20209;-55
2023/05/14 00:31:18;;;;;;;3.73;3.43;;;;;;;12.37;100.00;95319.53;4363677;32;20247;-56
2023/05/14 00:33:43;;;;;;;3.83;3.63;;;;;;;12.20;100.00;95330.84;4343941;32;20208;-54
2023/05/14 00:36:08;;;;;;;4.13;3.83;;;;;;;12.20;100.00;95324.75;4362466;32;20193;-57
2023/05/14 00:38:34;;;;;;;3.40;3.20;;;;;;;12.28;100.00;95322.13;4354393;32;20277;-54
2023/05/14 00:40:59;;;;;;;4.00;3.80;;;;;;;12.31;100.00;95321.53;4347925;32;20220;-56
2023/05/14 00:43:24;;;;;;;4.17;3.83;;;;;;;12.41;100.00;95319.72;4347928;32;20213;-56
2023/05/14 00:45:53;;;;;;;2.73;2.53;;;;;;;12.34;100.00;95320.13;4359384;32;20311;-56
2023/05/14 00:48:19;;;;;;;4.33;4.03;;;;;;;12.18;100.00;95329.59;4342874;32;20219;-54
2023/05/14 00:50:45;;;;;;;4.63;4.20;;;;;;;12.22;100.00;95328.69;4364966;32;20185;-55
2023/05/14 00:53:11;;;;;;;3.27;3.07;;;;;;;12.10;100.00;95320.44;4364148;32;20189;-56
2023/05/14 00:55:41;;;;;;;3.47;3.17;;;;;;;12.06;100.00;95322.13;4341642;32;20263;-56
2023/05/14 00:58:09;;;;;;;3.60;3.40;;;;;;;12.11;100.00;95321.22;4345479;32;20263;-54
2023/05/14 01:00:35;;;;;;;3.70;3.50;;;;;;;12.05;100.00;95317.94;4348387;32;20250;-55
2023/05/14 01:03:02;;;;;;;3.13;2.97;;;;;;;12.16;100.00;95315.81;4344879;32;20220;-56
2023/05/14 01:05:38;;;;;;;4.63;4.33;;;;;;;12.12;100.00;95323.59;4348750;32;20189;-56
2023/05/14 01:08:26;;;;;;;4.70;4.27;;;;;;;12.17;100.00;95320.81;4335471;32;20236;-58
2023/05/14 01:11:00;;;;;;;4.00;3.73;;;;;;;12.15;100.00;95316.88;4346479;32;20256;-54
2023/05/14 01:13:38;;;;;;;3.83;3.53;;;;;;;12.13;100.00;95319.84;4350856;32;20206;-57
2023/05/14 01:16:11;;;;;;;5.10;4.70;;;;;;;12.01;100.00;95322.28;4350162;32;20193;-56
2023/05/14 01:18:38;;;;;;;4.37;4.13;;;;;;;11.97;100.00;95315.97;4351255;32;20363;-55
2023/05/14 01:21:05;;;;;;;4.17;3.87;;;;;;;11.99;100.00;95313.81;4354540;32;20203;-55
2023/05/14 01:23:30;;;;;;;5.13;4.23;;;;;;;12.01;100.00;95316.97;4332450;32;20202;-56
2023/05/14 01:25:56;;;;;;;5.73;5.33;;;;;;;12.01;100.00;95317.75;4349197;32;20215;-56
2023/05/14 01:28:30;;;;;;;4.87;3.93;;;;;;;11.99;100.00;95309.28;4336574;32;20227;-54
2023/05/14 01:31:01;;;;;;;3.73;3.53;;;;;;;12.07;100.00;95301.66;4356359;32;20201;-55
2023/05/14 01:33:28;;;;;;;3.83;3.70;;;;;;;12.04;100.00;95300.41;4335051;32;20241;-55
2023/05/14 01:35:54;;;;;;;4.37;3.70;;;;;;;12.16;100.00;95299.84;4326115;32;20256;-56
2023/05/14 01:38:21;;;;;;;4.20;3.57;;;;;;;12.01;100.00;95306.31;4336639;32;20190;-55
2023/05/14 01:40:49;;;;;;;3.13;3.03;;;;;;;11.94;100.00;95301.41;4342554;32;20185;-57
2023/05/14 01:43:15;;;;;;;5.33;4.93;;;;;;;11.90;100.00;95295.12;4352649;32;20233;-56
2023/05/14 01:45:41;;;;;;;4.30;4.00;;;;;;;11.92;100.00;95292.97;4331354;32;20272;-55
2023/05/14 01:48:06;;;;;;;3.27;3.07;;;;;;;11.89;100.00;95293.56;4350769;32;20276;-55
2023/05/14 01:50:32;;;;;;;4.20;4.00;;;;;;;11.94;100.00;95295.31;4328823;32;20185;-56
2023/05/14 01:52:57;;;;;;;4.90;3.87;;;;;;;11.86;100.00;95293.38;4334590;32;20201;-56
2023/05/14 01:55:23;;;;;;;3.60;3.37;;;;;;;11.79;100.00;95291.16;4344733;32;20189;-53
2023/05/14 01:57:49;;;;;;;4.13;3.90;;;;;;;11.84;100.00;95290.25;4351395;32;20224;-52
2023/05/14 02:00:15;;;;;;;4.53;4.07;;;;;;;11.71;100.00;95286.50;4353059;32;20209;-53
2023/05/14 02:02:40;;;;;;;8.87;3.83;;;;;;;11.54;100.00;95286.38;4333988;32;20232;-60
2023/05/14 02:05:06;;;;;;;3.37;3.20;;;;;;;11.60;100.00;95287.84;4346552;32;20260;-56
2023/05/14 02:07:31;;;;;;;7.47;4.23;;;;;;;11.61;100.00;95282.22;4349331;32;20232;-56
2023/05/14 02:09:57;;;;;;;4.87;4.57;;;;;;;11.66;100.00;95283.97;4344225;32;20247;-55
2023/05/14 02:12:22;;;;;;;5.07;4.67;;;;;;;11.67;100.00;95283.66;4339951;32;20212;-57
2023/05/14 02:14:48;;;;;;;3.87;3.60;;;;;;;11.71;100.00;95281.19;4337270;32;20203;-57
2023/05/14 02:17:16;;;;;;;4.03;3.73;;;;;;;11.57;100.00;95286.56;4325687;32;20181;-56
2023/05/14 02:19:42;;;;;;;3.50;3.30;;;;;;;11.44;100.00;95289.22;4345860;32;20208;-57
2023/05/14 02:22:07;;;;;;;4.23;3.93;;;;;;;11.51;100.00;95287.75;4346721;32;20190;-54
2023/05/14 02:24:32;;;;;;;4.73;4.43;;;;;;;11.50;100.00;95288.84;4349405;32;20192;-55
2023/05/14 02:26:59;;;;;;;5.40;4.93;;;;;;;11.44;100.00;95284.72;4332833;33;20224;-57
2023/05/14 02:29:26;;;;;;;5.00;4.63;;;;;;;11.39;100.00;95287.50;4338572;32;20201;-56
2023/05/14 02:31:52;;;;;;;3.60;3.40;;;;;;;11.30;100.00;95282.09;4350848;32;20237;-54
2023/05/14 02:34:18;;;;;;;5.00;4.70;;;;;;;11.45;100.00;95286.28;4334436;32;20205;-55
2023/05/14 02:36:43;;;;;;;13.73;4.77;;;;;;;11.43;100.00;95287.69;4337161;32;20204;-54
2023/05/14 02:39:08;;;;;;;4.10;3.90;;;;;;;11.46;100.00;95285.19;4353140;32;20211;-56
2023/05/14 02:41:34;;;;;;;4.50;4.20;;;;;;;11.44;100.00;95287.38;4353307;32;20190;-56
2023/05/14 02:43:59;;;;;;;4.17;3.43;;;;;;;11.47;100.00;95281.47;4347515;32;20197;-56
2023/05/14 02:46:24;;;;;;;6.23;5.67;;;;;;;11.43;100.00;95277.81;4328684;32;20232;-55
2023/05/14 02:48:50;;;;;;;5.40;4.90;;;;;;;11.44;100.00;95279.41;4349842;32;20195;-53
2023/05/14 02:51:15;;;;;;;5.73;5.23;;;;;;;11.52;100.00;95278.69;4334381;32;20255;-55
2023/05/14 02:53:41;;;;;;;5.37;5.00;;;;;;;11.49;100.00;95273.97;4338020;32;20205;-53
2023/05/14 02:56:07;;;;;;;4.13;3.93;;;;;;;11.51;100.00;95277.13;4327380;32;20280;-54
2023/05/14 02:58:32;;;;;;;6.60;5.07;;;;;;;11.48;100.00;95277.72;4323573;32;20245;-56
2023/05/14 03:00:57;;;;;;;5.50;5.17;;;;;;;11.47;100.00;95278.81;4337535;32;20224;-55
2023/05/14 03:03:23;;;;;;;5.97;5.47;;;;;;;11.39;100.00;95278.75;4342866;32;20208;-54
2023/05/14 03:05:48;;;;;;;6.23;5.83;;;;;;;11.23;100.00;95275.59;4331670;32;20276;-53
2023/05/14 03:08:14;;;;;;;5.57;5.20;;;;;;;11.23;100.00;95268.44;4331046;32;20197;-54
2023/05/14 03:10:39;;;;;;;5.67;4.97;;;;;;;11.25;100.00;95273.44;4347048;32;20185;-54
2023/05/14 03:13:05;;;;;;;6.20;5.47;;;;;;;11.19;100.00;95274.66;4333807;32;20225;-55
2023/05/14 03:15:30;;;;;;;8.80;4.30;;;;;;;11.23;100.00;95268.44;4330490;32;20194;-54
2023/05/14 03:17:55;;;;;;;7.40;6.10;;;;;;;11.14;100.00;95270.22;4344370;32;20220;-55
2023/05/14 03:20:23;;;;;;;5.80;5.37;;;;;;;11.13;100.00;95270.53;4329741;32;20257;-54
2023/05/14 03:22:48;;;;;;;6.60;4.83;;;;;;;11.14;100.00;95264.12;4344384;32;20264;-56
2023/05/14 03:25:14;;;;;;;4.23;3.90;;;;;;;11.26;100.00;95272.38;4343215;32;20197;-53
2023/05/14 03:27:39;;;;;;;5.17;4.67;;;;;;;11.40;100.00;95265.16;4347285;32;20235;-54
2023/05/14 03:30:05;;;;;;;4.93;4.70;;;;;;;11.40;100.00;95270.47;4333461;32;20209;-54
2023/05/14 03:32:31;;;;;;;3.63;3.33;;;;;;;11.16;100.00;95265.41;4347037;32;20204;-53
2023/05/14 03:34:56;;;;;;;5.73;5.20;;;;;;;11.12;100.00;95253.03;4333494;32;20213;-53
2023/05/14 03:37:22;;;;;;;5.50;5.10;;;;;;;11.06;100.00;95254.19;4347131;32;20251;-55
2023/05/14 03:39:47;;;;;;;4.23;3.93;;;;;;;11.06;100.00;95260.31;4332551;32;20211;-56
2023/05/14 03:42:13;;;;;;;4.77;4.40;;;;;;;11.14;100.00;95258.81;4348610;32;20213;-55
2023/05/14 03:44:38;;;;;;;5.83;5.47;;;;;;;11.11;100.00;95254.09;4330753;32;20223;-54
2023/05/14 03:47:03;;;;;;;3.03;2.87;;;;;;;11.13;100.00;95254.59;4343593;32;20201;-55
2023/05/14 03:49:29;;;;;;;4.70;4.40;;;;;;;11.31;100.00;95258.97;4336664;32;20193;-56
2023/05/14 03:51:54;;;;;;;5.60;4.50;;;;;;;11.25;100.00;95265.47;4332634;32;20205;-56
2023/05/14 03:54:20;;;;;;;4.27;4.07;;;;;;;11.24;100.00;95248.75;4332943;32;20189;-56
2023/05/14 03:56:45;;;;;;;4.00;3.80;;;;;;;11.27;100.00;95256.12;4335026;32;20197;-55
2023/05/14 03:59:10;;;;;;;4.40;4.20;;;;;;;11.34;100.00;95256.53;4333058;32;20185;-55
2023/05/14 04:01:35;;;;;;;5.00;4.60;;;;;;;11.22;100.00;95252.81;4332858;32;20307;-56
2023/05/14 04:04:01;;;;;;;4.10;3.90;;;;;;;11.13;100.00;95259.91;4340184;32;20290;-54
2023/05/14 04:06:26;;;;;;;5.47;5.00;;;;;;;11.26;100.00;95259.87;4341979;32;20236;-55
2023/05/14 04:08:51;;;;;;;5.33;4.83;;;;;;;11.18;100.00;95251.84;4358614;32;20233;-54
2023/05/14 04:11:17;;;;;;;4.63;4.33;;;;;;;11.06;100.00;95243.59;4358163;32;20185;-56
2023/05/14 04:13:42;;;;;;;5.70;4.50;;;;;;;11.09;100.00;95251.75;4341928;32;20220;-56
2023/05/14 04:16:08;;;;;;;4.73;4.43;;;;;;;11.04;100.00;95246.53;4361630;32;20259;-54
2023/05/14 04:18:34;;;;;;;5.10;4.73;;;;;;;11.18;100.00;95246.53;4357211;32;20239;-54
2023/05/14 04:21:01;;;;;;;3.80;3.63;;;;;;;11.24;100.00;95253.28;4328545;32;20266;-57
2023/05/14 04:23:31;;;;;;;6.50;4.77;;;;;;;11.31;100.00;95251.00;4352974;32;20302;-55
2023/05/14 04:25:57;;;;;;;4.80;4.40;;;;;;;11.22;100.00;95255.47;4361077;32;20208;-56
2023/05/14 04:28:22;;;;;;;5.60;5.17;;;;;;;11.10;100.00;95263.16;4340919;32;20260;-53
2023/05/14 04:30:48;;;;;;;4.83;4.47;;;;;;;11.01;100.00;95261.19;4353262;32;20193;-52
2023/05/14 04:33:13;;;;;;;22.57;6.17;;;;;;;10.91;100.00;95253.44;4344171;32;20296;-54
2023/05/14 04:35:39;;;;;;;6.57;6.07;;;;;;;11.08;100.00;95260.78;4353784;32;20197;-54
2023/05/14 04:38:04;;;;;;;6.57;5.93;;;;;;;10.97;100.00;95259.44;4354753;32;20201;-56
2023/05/14 04:40:30;;;;;;;3.83;3.67;;;;;;;11.12;100.00;95258.34;4339828;32;20193;-55
2023/05/14 04:42:56;;;;;;;6.90;6.27;;;;;;;11.21;100.00;95254.69;4357425;32;20204;-54
2023/05/14 04:45:21;;;;;;;6.83;6.33;;;;;;;11.00;100.00;95257.00;4346717;32;20197;-53
2023/05/14 04:47:46;;;;;;;11.07;6.37;;;;;;;11.04;100.00;95262.47;4350631;32;20193;-63
2023/05/14 04:50:12;;;;;;;6.20;5.40;;;;;;;10.88;100.00;95264.66;4353448;32;20197;-55
2023/05/14 04:52:37;;;;;;;6.27;5.70;;;;;;;10.93;100.00;95267.22;4360676;32;20209;-56
2023/05/14 04:55:03;;;;;;;7.40;5.77;;;;;;;10.85;100.00;95265.22;4359127;32;20235;-56
2023/05/14 04:57:29;;;;;;;7.77;5.20;;;;;;;10.92;100.00;95265.63;4355071;32;20194;-52
2023/05/14 04:59:54;;;;;;;6.43;4.90;;;;;;;11.13;100.00;95265.22;4354544;32;20260;-56
2023/05/14 05:02:20;;;;;;;6.80;6.23;;;;;;;11.09;100.00;95261.56;4336290;32;20205;-55
2023/05/14 05:04:46;;;;;;;5.57;5.10;;;;;;;11.09;100.00;95265.03;4333426;32;20233;-55
2023/05/14 05:07:12;;;;;;;5.93;5.43;;;;;;;11.04;100.00;95267.78;4345243;32;20224;-55
2023/05/14 05:09:37;;;;;;;5.47;5.07;;;;;;;11.07;100.00;95269.84;4345309;32;20288;-53
2023/05/14 05:12:03;;;;;;;5.73;5.43;;;;;;;10.90;100.00;95267.78;4331266;32;20188;-52
2023/05/14 05:14:28;;;;;;;5.23;4.93;;;;;;;10.90;100.00;95267.00;4333565;32;20185;-55
2023/05/14 05:16:53;;;;;;;4.57;4.27;;;;;;;10.94;100.00;95266.13;4332760;32;20193;-55
2023/05/14 05:19:19;;;;;;;6.43;5.87;;;;;;;10.95;100.00;95264.25;4348490;32;20220;-52
2023/05/14 05:21:44;;;;;;;4.90;4.60;;;;;;;10.95;100.00;95259.75;4351084;32;20185;-56
2023/05/14 05:24:09;;;;;;;6.03;5.47;;;;;;;10.95;100.00;95262.38;4331745;32;20335;-56
2023/05/14 05:26:35;;;;;;;5.90;5.40;;;;;;;10.93;100.00;95264.56;4335971;32;20193;-55
2023/05/14 05:29:02;;;;;;;5.37;5.07;;;;;;;11.02;100.00;95260.09;4346765;32;20204;-53
2023/05/14 05:31:30;;;;;;;6.03;5.53;;;;;;;10.94;100.00;95266.13;4334539;32;20256;-53
2023/05/14 05:33:56;;;;;;;7.00;6.50;;;;;;;10.99;100.00;95262.59;4334804;32;20215;-53
2023/05/14 05:36:21;;;;;;;6.73;4.90;;;;;;;11.07;100.00;95269.06;4348673;32;20189;-54
2023/05/14 05:38:47;;;;;;;6.67;6.17;;;;;;;11.14;100.00;95262.25;4335249;32;20185;-57
2023/05/14 05:41:12;;;;;;;6.13;5.63;;;;;;;11.20;100.00;95265.59;4350371;32;20204;-57
2023/05/14 05:43:37;;;;;;;6.30;5.83;;;;;;;11.20;100.00;95271.72;4334800;32;20252;-53
2023/05/14 05:46:03;;;;;;;6.53;6.10;;;;;;;11.20;100.00;95265.59;4334623;32;20207;-55
2023/05/14 05:48:28;;;;;;;8.03;6.77;;;;;;;11.24;100.00;95266.56;4332333;32;20235;-56
2023/05/14 05:50:53;;;;;;;6.23;5.83;;;;;;;11.26;100.00;95264.41;4331960;32;20190;-55
2023/05/14 05:53:19;;;;;;;7.13;6.37;;;;;;;11.29;100.00;95272.56;4347816;32;20212;-54
2023/05/14 05:55:44;;;;;;;7.80;6.37;;;;;;;11.35;100.00;95274.03;4350720;32;20196;-56
2023/05/14 05:58:10;;;;;;;7.00;6.30;;;;;;;11.13;100.00;95271.31;4348385;32;20271;-54
2023/05/14 06:00:35;;;;;;;8.10;7.30;;;;;;;11.23;100.00;95270.28;4334433;32;20189;-55
2023/05/14 06:03:01;;;;;;;5.33;5.03;;;;;;;11.33;100.00;95267.44;4348151;32;20211;-57
2023/05/14 06:05:26;;;;;;;6.37;5.87;;;;;;;11.35;100.00;95271.38;4334839;32;20250;-54
2023/05/14 06:07:54;;;;;;;5.23;4.73;;;;;;;11.24;100.00;95269.22;4333714;32;20181;-55
2023/05/14 06:10:19;;;;;;;5.10;4.77;;;;;;;11.27;100.00;95271.28;4348523;32;20189;-54
2023/05/14 06:12:45;;;;;;;6.77;6.27;;;;;;;11.20;100.00;95268.25;4349975;32;20189;-55
2023/05/14 06:15:11;;;;;;;6.80;6.20;;;;;;;11.23;100.00;95268.44;4346077;32;20189;-53
2023/05/14 06:17:37;;;;;;;5.50;5.10;;;;;;;11.27;100.00;95273.94;4334134;32;20201;-56
2023/05/14 06:20:04;;;;;;;6.63;6.17;;;;;;;11.27;100.00;95264.09;4312038;32;20468;-56
2023/05/14 06:22:29;;;;;;;6.07;5.67;;;;;;;11.36;100.00;95261.53;4348174;32;20189;-56
2023/05/14 06:24:55;;;;;;;7.47;6.90;;;;;;;11.45;100.00;95262.38;4344871;32;20208;-55
2023/05/14 06:27:20;;;;;;;6.47;5.87;;;;;;;11.38;100.00;95259.38;4347718;32;20257;-54
2023/05/14 06:29:45;;;;;;;5.77;5.27;;;;;;;11.46;100.00;95263.94;4346780;32;20190;-54
2023/05/14 06:32:14;;;;;;;6.83;6.13;;;;;;;11.66;100.00;95262.69;4347770;32;20249;-56
2023/05/14 06:34:39;;;;;;;5.50;5.10;;;;;;;11.65;100.00;95261.91;4332956;32;20205;-56
2023/05/14 06:37:05;;;;;;;5.67;5.17;;;;;;;11.72;100.00;95261.50;4348151;32;20218;-49
2023/05/14 06:39:31;;;;;;;6.60;6.03;;;;;;;11.63;100.00;95264.12;4343913;32;20190;-54
2023/05/14 06:41:56;;;;;;;8.17;6.73;;;;;;;11.53;100.00;95261.69;4348457;32;20241;-56
2023/05/14 06:44:22;;;;;;;5.40;4.97;;;;;;;11.45;100.00;95265.03;4347082;32;20239;-54
2023/05/14 06:46:47;;;;;;;5.90;5.50;;;;;;;11.58;100.00;95263.44;4347878;32;20255;-62
2023/05/14 06:49:12;;;;;;;5.87;5.20;;;;;;;11.57;100.00;95254.69;4347866;32;20246;-54
2023/05/14 06:51:39;;;;;;;4.83;4.53;;;;;;;11.59;100.00;95257.03;4346991;32;20242;-55
2023/05/14 06:54:05;;;;;;;6.53;6.03;;;;;;;11.54;100.00;95259.81;4329958;32;20186;-56
2023/05/14 06:56:30;;;;;;;5.83;5.53;;;;;;;11.57;100.00;95261.88;4331921;32;20185;-56
2023/05/14 06:58:55;;;;;;;5.47;5.07;;;;;;;11.58;100.00;95261.56;4347047;32;20185;-56
2023/05/14 07:01:21;;;;;;;6.73;5.03;;;;;;;11.56;100.00;95265.59;4334049;32;20197;-56
2023/05/14 07:03:46;;;;;;;5.57;5.03;;;;;;;11.60;100.00;95271.91;4341757;32;20192;-56
2023/05/14 07:06:11;;;;;;;5.83;5.43;;;;;;;11.61;100.00;95273.47;4361111;32;20207;-56
2023/05/14 07:08:37;;;;;;;6.23;5.63;;;;;;;11.59;100.00;95260.47;4359033;32;20304;-54
2023/05/14 07:11:02;;;;;;;5.63;5.20;;;;;;;11.79;100.00;95256.59;4358811;32;20259;-53
2023/05/14 07:13:27;;;;;;;7.80;6.23;;;;;;;11.76;100.00;95245.75;4347080;32;20185;-56
2023/05/14 07:15:54;;;;;;;4.87;4.43;;;;;;;11.82;100.00;95233.94;4340987;32;20189;-56
2023/05/14 07:18:20;;;;;;;7.33;6.73;;;;;;;11.78;100.00;95232.97;4340666;32;20202;-57
2023/05/14 07:20:46;;;;;;;5.80;5.30;;;;;;;11.73;100.00;95238.37;4354453;32;20200;-54
2023/05/14 07:23:11;;;;;;;5.90;5.40;;;;;;;11.68;100.00;95237.41;4361871;32;20185;-56
2023/05/14 07:25:36;;;;;;;5.37;5.07;;;;;;;11.85;100.00;95233.31;4347116;32;23448;-57
2023/05/14 07:28:02;;;;;;;5.80;5.30;;;;;;;12.00;100.00;95236.41;4337656;32;20240;-56
2023/05/14 07:30:27;;;;;;;6.70;6.10;;;;;;;11.98;100.00;95235.13;4343428;32;20249;-56
2023/05/14 07:32:52;;;;;;;6.03;5.60;;;;;;;11.88;100.00;95236.16;4342156;32;20247;-56
2023/05/14 07:35:18;;;;;;;5.30;4.80;;;;;;;11.91;100.00;95235.56;4344448;32;20194;-58
2023/05/14 07:37:43;;;;;;;5.03;4.63;;;;;;;11.99;100.00;95234.06;4345826;32;20243;-54
2023/05/14 07:40:09;;;;;;;5.20;4.80;;;;;;;11.84;100.00;95237.09;4346560;32;20233;-56
2023/05/14 07:42:34;;;;;;;10.53;5.60;;;;;;;11.88;100.00;95230.06;4335724;32;20186;-53
2023/05/14 07:45:00;;;;;;;6.53;6.03;;;;;;;11.83;100.00;95227.53;4358451;32;20240;-56
2023/05/14 07:47:25;;;;;;;4.87;4.60;;;;;;;11.81;100.00;95227.06;4348146;32;20251;-56
2023/05/14 07:49:55;;;;;;;5.30;4.90;;;;;;;11.78;100.00;95222.34;4359732;32;20215;-56
2023/05/14 07:52:20;;;;;;;6.87;6.20;;;;;;;11.75;100.00;95222.91;4336310;32;20185;-56
2023/05/14 07:54:46;;;;;;;4.93;4.63;;;;;;;11.78;100.00;95217.03;4343281;32;20193;-57
2023/05/14 07:57:11;;;;;;;5.87;5.37;;;;;;;11.88;100.00;95222.09;4360001;32;20200;-55
2023/05/14 07:59:36;;;;;;;4.53;4.23;;;;;;;12.07;100.00;95208.59;4343394;32;20185;-55
2023/05/14 08:02:02;;;;;;;5.03;4.73;;;;;;;12.10;100.00;95213.28;4361462;32;20240;-53
2023/05/14 08:04:27;;;;;;;5.10;4.80;;;;;;;12.09;100.00;95212.50;4339837;32;20216;-55
2023/05/14 08:06:52;;;;;;;5.73;5.37;;;;;;;11.93;100.00;95219.31;4341743;32;20244;-56
2023/05/14 08:09:18;;;;;;;5.30;4.73;;;;;;;12.01;100.00;95214.06;4362190;32;20185;-63
2023/05/14 08:11:43;;;;;;;5.03;4.73;;;;;;;11.98;100.00;95221.84;4357312;32;20249;-53
2023/05/14 08:14:08;;;;;;;5.43;4.47;;;;;;;11.85;100.00;95212.06;4360689;32;20193;-56
2023/05/14 08:16:33;;;;;;;8.47;5.17;;;;;;;11.69;100.00;95217.72;4356817;32;20205;-54
2023/05/14 08:18:59;;;;;;;5.17;4.90;;;;;;;11.81;100.00;95227.84;4343385;32;20194;-56
2023/05/14 08:21:24;;;;;;;5.00;4.70;;;;;;;11.75;100.00;95233.53;4360573;32;20200;-56
2023/05/14 08:23:50;;;;;;;5.50;5.00;;;;;;;11.76;100.00;95237.78;4355185;32;20207;-57
2023/05/14 08:26:15;;;;;;;4.23;4.03;;;;;;;11.81;100.00;95229.72;4352624;32;20203;-55
2023/05/14 08:28:40;;;;;;;3.60;3.40;;;;;;;11.79;100.00;95231.88;4341369;32;20197;-54
2023/05/14 08:31:05;;;;;;;3.37;3.17;;;;;;;11.82;100.00;95232.06;4359051;32;20207;-56
2023/05/14 08:33:32;;;;;;;4.23;3.93;;;;;;;11.82;100.00;95223.31;4331328;32;20213;-59
2023/05/14 08:35:59;;;;;;;3.70;3.40;;;;;;;11.92;100.00;95231.03;4358368;32;20247;-58
2023/05/14 08:38:24;;;;;;;4.80;4.50;;;;;;;12.03;100.00;95225.16;4339167;32;20206;-59
2023/05/14 08:40:56;;;;;;;4.17;3.83;;;;;;;12.11;100.00;95220.19;4342885;32;20205;-58
2023/05/14 08:43:25;;;;;;;4.40;4.13;;;;;;;12.02;100.00;95228.13;4339959;32;20192;-59
2023/05/14 08:45:55;;;;;;;4.17;3.83;;;;;;;12.02;100.00;95220.94;4347890;32;20207;-59
2023/05/14 08:48:21;;;;;;;4.77;4.37;;;;;;;12.14;100.00;95216.91;4345802;32;20203;-59
2023/05/14 08:50:47;;;;;;;3.27;3.17;;;;;;;12.24;100.00;95209.47;4360701;32;20185;-58
2023/05/14 08:53:12;;;;;;;4.03;3.73;;;;;;;12.12;100.00;95211.91;4361698;32;20208;-59
2023/05/14 08:55:37;;;;;;;3.50;3.40;;;;;;;12.07;100.00;95217.34;4360537;32;20326;-58
2023/05/14 08:58:03;;;;;;;3.93;3.70;;;;;;;12.11;100.00;95218.31;4347542;32;20247;-58
2023/05/14 09:00:28;;;;;;;4.77;4.47;;;;;;;12.12;100.00;95221.75;4360550;32;20256;-59
2023/05/14 09:02:54;;;;;;;4.70;4.40;;;;;;;12.09;100.00;95228.47;4350020;32;20230;-59
2023/05/14 09:05:21;;;;;;;4.80;4.50;;;;;;;12.21;100.00;95218.06;4344419;32;20247;-59
2023/05/14 09:07:46;;;;;;;4.10;3.80;;;;;;;12.16;100.00;95218.19;4363150;32;20272;-57
2023/05/14 09:10:12;;;;;;;4.33;4.10;;;;;;;12.05;100.00;95222.22;4354631;32;20189;-58
2023/05/14 09:12:37;;;;;;;4.07;3.87;;;;;;;11.99;100.00;95218.09;4340963;32;20194;-58
2023/05/14 09:15:03;;;;;;;5.13;4.73;;;;;;;11.98;100.00;95217.31;4357896;32;20308;-59
2023/05/14 09:17:28;;;;;;;4.60;4.33;;;;;;;11.82;100.00;95212.69;4349959;32;20193;-57
2023/05/14 09:19:54;;;;;;;8.03;6.07;;;;;;;11.85;100.00;95212.84;4354981;32;20216;-59
2023/05/14 09:22:20;;;;;;;4.67;4.30;;;;;;;11.79;100.00;95208.75;4363708;32;20208;-59
2023/05/14 09:24:46;;;;;;;4.33;3.93;;;;;;;11.91;100.00;95208.97;4350351;32;20248;-59
2023/05/14 09:27:18;;;;;;;7.37;4.37;;;;;;;11.90;100.00;95204.75;4346257;32;20219;-58
2023/05/14 09:29:44;;;;;;;4.20;3.80;;;;;;;12.10;100.00;95207.97;4349987;32;20188;-59
2023/05/14 09:32:09;;;;;;;4.40;4.10;;;;;;;12.10;100.00;95203.44;4346281;32;20203;-59
2023/05/14 09:34:37;;;;;;;4.30;4.10;;;;;;;12.21;100.00;95209.31;4347507;32;20260;-59
2023/05/14 09:37:05;;;;;;;4.03;3.73;;;;;;;12.38;99.53;95209.38;4343102;32;20226;-59
2023/05/14 09:39:35;;;;;;;3.47;3.17;;;;;;;12.25;99.43;95200.41;4357944;32;20256;-59
2023/05/14 09:42:01;;;;;;;3.70;3.50;;;;;;;12.32;99.70;95200.72;4357277;32;20181;-59
2023/05/14 09:44:26;;;;;;;3.73;3.53;;;;;;;12.45;99.31;95211.59;4346206;32;20215;-58
2023/05/14 09:46:52;;;;;;;5.37;4.63;;;;;;;12.38;98.37;95218.12;4355774;32;20203;-59
2023/05/14 09:49:18;;;;;;;3.80;3.57;;;;;;;12.36;98.75;95220.31;4364876;32;20185;-58
2023/05/14 09:51:43;;;;;;;4.37;4.07;;;;;;;12.16;99.19;95217.41;4347770;32;20197;-58
2023/05/14 09:54:09;;;;;;;2.77;2.67;;;;;;;12.32;98.69;95203.41;4363096;32;20196;-59
2023/05/14 09:56:35;;;;;;;3.80;3.60;;;;;;;12.40;98.34;95199.22;4361080;32;20189;-58
2023/05/14 09:59:02;;;;;;;2.57;2.47;;;;;;;12.35;97.93;95197.47;4349369;32;20189;-59
2023/05/14 10:01:29;;;;;;;2.50;2.40;;;;;;;12.30;98.50;95199.47;4352650;32;20236;-59
2023/05/14 10:03:55;;;;;;;5.37;4.97;;;;;;;12.32;98.47;95195.41;4355156;32;20282;-58
2023/05/14 10:06:25;;;;;;;2.57;2.40;;;;;;;12.32;98.30;95200.72;4338811;32;20198;-59
2023/05/14 10:08:55;;;;;;;2.43;2.30;;;;;;;12.26;97.71;95196.63;4339716;32;20215;-59
2023/05/14 10:11:26;;;;;;;2.77;2.63;;;;;;;12.27;97.35;95203.53;4345815;32;20240;-58
2023/05/14 10:14:02;;;;;;;2.87;2.77;;;;;;;12.30;96.92;95202.91;4344732;32;20193;-59
2023/05/14 10:16:33;;;;;;;2.10;2.00;;;;;;;12.25;96.69;95205.72;4359058;32;20188;-59
2023/05/14 10:19:11;;;;;;;2.53;2.40;;;;;;;12.31;97.02;95203.69;4343697;32;20248;-59
2023/05/14 10:21:40;;;;;;;2.87;2.67;;;;;;;12.45;96.35;95208.94;4358821;32;20219;-59
2023/05/14 10:24:06;;;;;;;2.97;2.80;;;;;;;12.42;95.88;95210.34;4359966;32;20186;-59
2023/05/14 10:26:38;;;;;;;3.00;2.60;;;;;;;12.44;96.27;95202.84;4345122;32;20217;-59
2023/05/14 10:29:04;;;;;;;2.83;2.53;;;;;;;12.51;96.00;95200.50;4362428;32;20285;-58
2023/05/14 10:31:53;;;;;;;3.13;2.87;;;;;;;12.55;96.05;95203.31;4361930;32;20184;-57
2023/05/14 10:34:37;;;;;;;2.83;2.73;;;;;;;12.46;96.60;95202.53;4344471;32;20219;-59
2023/05/14 10:37:08;;;;;;;2.60;2.33;;;;;;;12.34;97.48;95205.75;4348562;32;20258;-59
2023/05/14 10:39:48;;;;;;;15.27;3.63;;;;;;;12.47;97.77;95204.84;4341042;32;20284;-58
2023/05/14 10:42:22;;;;;;;2.47;2.27;;;;;;;12.47;96.96;95209.41;4355218;32;20245;-59
2023/05/14 10:44:58;;;;;;;2.07;1.97;;;;;;;12.52;96.77;95214.59;4361137;32;20181;-59
2023/05/14 10:47:45;;;;;;;3.10;2.90;;;;;;;12.58;95.80;95216.03;4344014;32;20301;-59
2023/05/14 10:50:13;;;;;;;1.93;1.83;;;;;;;12.55;95.93;95206.78;4359019;32;20197;-59
2023/05/14 10:52:42;;;;;;;3.47;3.27;;;;;;;12.52;95.42;95207.37;4345081;32;20302;-59
2023/05/14 10:55:11;;;;;;;2.50;2.40;;;;;;;12.51;95.53;95207.69;4354318;32;22159;-58
2023/05/14 10:57:38;;;;;;;2.20;2.10;;;;;;;12.47;95.85;95202.19;4345285;32;20259;-59
2023/05/14 11:00:06;;;;;;;2.27;2.17;;;;;;;12.48;96.15;95202.97;4345406;32;20241;-58
2023/05/14 11:02:37;;;;;;;2.17;2.07;;;;;;;12.63;95.18;95202.56;4339608;32;20189;-59
2023/05/14 11:05:10;;;;;;;2.77;2.67;;;;;;;12.67;94.92;95203.53;4348499;32;20185;-58
2023/05/14 11:07:43;;;;;;;1.97;1.93;;;;;;;12.55;94.56;95201.44;4348706;32;20262;-58
2023/05/14 11:10:12;;;;;;;2.73;2.63;;;;;;;12.66;94.55;95201.97;4342314;32;20286;-58
2023/05/14 11:12:40;;;;;;;2.97;2.80;;;;;;;12.71;93.85;95197.25;4341006;32;20208;-59
2023/05/14 11:15:11;;;;;;;6.03;2.70;;;;;;;12.74;93.64;95203.84;4358871;32;20270;-58
2023/05/14 11:17:39;;;;;;;2.63;2.33;;;;;;;12.68;93.05;95197.09;4345374;32;20188;-59
2023/05/14 11:20:06;;;;;;;3.33;2.93;;;;;;;12.61;93.74;95191.44;4340246;32;20245;-59
2023/05/14 11:22:31;;;;;;;1.60;1.50;;;;;;;12.76;92.93;95188.34;4354016;32;20188;-59
2023/05/14 11:24:57;;;;;;;2.73;2.53;;;;;;;12.67;93.33;95185.69;4359065;32;20193;-58